Harvel, Illinois
Current Conditions -  °F | °C
As of 8:15 PM on Saturday 22 Nov 2014 (Local Time) from K3LF Reporting Station
Light Rain Light Rain  
Wind Chill: 50°   Ceiling: 5000
Heat Index: 50°   Visibility: 7mi
Dew Point: 48°   Wind: 15mph
Humidity: 91%   Direction: 170°S
Pressure: 29.93"   Gusts: NA
Location:  39.36°N, 89.53°W
Report Text: K3LF 230215Z AUTO 17013KT 7SM -RA SCT030 BKN050 OVC085 10/09 A2993 RMK AO2 P0002 T01020088
Loading
Personal Weather Stations






























Interactive Weather Map New forecast layout! Learn more

10-Day Weather Forecast

Advertisements
Track Severe Weather on mobile